sensor_id;sensor_type;location;lat;lon;timestamp;temperature;humidity
22852;DHT22;11592;45.460;9.240;2022-12-07T00:01:16;4.30;99.90
22852;DHT22;11592;45.460;9.240;2022-12-07T00:03:45;4.30;99.90
22852;DHT22;11592;45.460;9.240;2022-12-07T00:06:14;4.20;99.90
22852;DHT22;11592;45.460;9.240;2022-12-07T00:08:41;4.20;99.90
22852;DHT22;11592;45.460;9.240;2022-12-07T00:13:37;4.10;99.90
22852;DHT22;11592;45.460;9.240;2022-12-07T00:16:10;4.10;99.90
22852;DHT22;11592;45.460;9.240;2022-12-07T00:18:37;4.10;99.90
22852;DHT22;11592;45.460;9.240;2022-12-07T00:21:06;4.10;99.90
22852;DHT22;11592;45.460;9.240;2022-12-07T00:23:33;4.10;99.90
22852;DHT22;11592;45.460;9.240;2022-12-07T00:26:15;4.00;99.90
22852;DHT22;11592;45.460;9.240;2022-12-07T00:28:47;4.00;99.90
22852;DHT22;11592;45.460;9.240;2022-12-07T00:31:15;4.00;99.90
22852;DHT22;11592;45.460;9.240;2022-12-07T00:33:43;4.00;99.90
22852;DHT22;11592;45.460;9.240;2022-12-07T00:36:13;4.00;99.90
22852;DHT22;11592;45.460;9.240;2022-12-07T00:38:40;4.00;99.90
22852;DHT22;11592;45.460;9.240;2022-12-07T00:41:14;4.00;99.90
22852;DHT22;11592;45.460;9.240;2022-12-07T00:43:42;4.00;99.90
22852;DHT22;11592;45.460;9.240;2022-12-07T00:46:09;4.00;99.90
22852;DHT22;11592;45.460;9.240;2022-12-07T00:48:36;4.00;99.90
22852;DHT22;11592;45.460;9.240;2022-12-07T00:51:04;4.00;99.90
22852;DHT22;11592;45.460;9.240;2022-12-07T00:53:34;3.90;99.90
22852;DHT22;11592;45.460;9.240;2022-12-07T00:56:24;4.00;99.90
22852;DHT22;11592;45.460;9.240;2022-12-07T00:58:57;4.00;99.90
22852;DHT22;11592;45.460;9.240;2022-12-07T01:01:27;4.00;99.90
22852;DHT22;11592;45.460;9.240;2022-12-07T01:03:54;3.90;99.90
22852;DHT22;11592;45.460;9.240;2022-12-07T01:06:23;3.90;99.90
22852;DHT22;11592;45.460;9.240;2022-12-07T01:08:50;3.90;99.90
22852;DHT22;11592;45.460;9.240;2022-12-07T01:11:20;3.90;99.90
22852;DHT22;11592;45.460;9.240;2022-12-07T01:13:50;3.90;99.90
22852;DHT22;11592;45.460;9.240;2022-12-07T01:16:18;3.90;99.90
22852;DHT22;11592;45.460;9.240;2022-12-07T01:18:47;3.90;99.90
22852;DHT22;11592;45.460;9.240;2022-12-07T01:21:17;3.90;99.90
22852;DHT22;11592;45.460;9.240;2022-12-07T01:23:45;4.00;99.90
22852;DHT22;11592;45.460;9.240;2022-12-07T01:26:15;4.00;99.90
22852;DHT22;11592;45.460;9.240;2022-12-07T01:28:42;3.90;99.90
22852;DHT22;11592;45.460;9.240;2022-12-07T01:31:12;3.90;99.90
22852;DHT22;11592;45.460;9.240;2022-12-07T01:33:43;3.90;99.90
22852;DHT22;11592;45.460;9.240;2022-12-07T01:38:41;3.80;99.90
22852;DHT22;11592;45.460;9.240;2022-12-07T01:41:08;3.80;99.90
22852;DHT22;11592;45.460;9.240;2022-12-07T01:43:35;3.90;99.90
22852;DHT22;11592;45.460;9.240;2022-12-07T01:46:03;3.90;99.90
22852;DHT22;11592;45.460;9.240;2022-12-07T01:48:38;4.00;99.90
22852;DHT22;11592;45.460;9.240;2022-12-07T01:51:09;4.00;99.90
22852;DHT22;11592;45.460;9.240;2022-12-07T01:53:42;4.00;99.90
22852;DHT22;11592;45.460;9.240;2022-12-07T01:56:14;3.90;99.90
22852;DHT22;11592;45.460;9.240;2022-12-07T01:58:44;3.90;99.90
22852;DHT22;11592;45.460;9.240;2022-12-07T02:01:11;3.80;99.90
22852;DHT22;11592;45.460;9.240;2022-12-07T02:03:40;3.80;99.90
22852;DHT22;11592;45.460;9.240;2022-12-07T02:06:10;3.80;99.90
22852;DHT22;11592;45.460;9.240;2022-12-07T02:08:38;3.80;99.90
22852;DHT22;11592;45.460;9.240;2022-12-07T02:11:06;3.80;99.90
22852;DHT22;11592;45.460;9.240;2022-12-07T02:13:36;3.80;99.90
22852;DHT22;11592;45.460;9.240;2022-12-07T02:21:19;3.60;99.90
22852;DHT22;11592;45.460;9.240;2022-12-07T02:23:59;3.30;99.90
22852;DHT22;11592;45.460;9.240;2022-12-07T02:31:54;3.60;99.90
22852;DHT22;11592;45.460;9.240;2022-12-07T02:34:25;3.60;99.90
22852;DHT22;11592;45.460;9.240;2022-12-07T02:37:03;3.50;99.90
22852;DHT22;11592;45.460;9.240;2022-12-07T02:39:45;3.60;99.90
22852;DHT22;11592;45.460;9.240;2022-12-07T02:42:19;3.50;99.90
22852;DHT22;11592;45.460;9.240;2022-12-07T02:44:48;3.50;99.90
22852;DHT22;11592;45.460;9.240;2022-12-07T02:47:17;3.40;99.90
22852;DHT22;11592;45.460;9.240;2022-12-07T02:49:46;3.40;99.90
22852;DHT22;11592;45.460;9.240;2022-12-07T02:52:13;3.30;99.90
22852;DHT22;11592;45.460;9.240;2022-12-07T02:54:40;3.30;99.90
22852;DHT22;11592;45.460;9.240;2022-12-07T02:58:14;3.30;99.90
22852;DHT22;11592;45.460;9.240;2022-12-07T03:00:19;3.30;99.90
22852;DHT22;11592;45.460;9.240;2022-12-07T03:03:04;3.20;99.90
22852;DHT22;11592;45.460;9.240;2022-12-07T03:06:36;3.20;99.90
22852;DHT22;11592;45.460;9.240;2022-12-07T03:08:56;3.20;99.90
22852;DHT22;11592;45.460;9.240;2022-12-07T03:11:48;3.20;99.90
22852;DHT22;11592;45.460;9.240;2022-12-07T03:14:30;3.20;99.90
22852;DHT22;11592;45.460;9.240;2022-12-07T03:17:16;3.20;99.90
22852;DHT22;11592;45.460;9.240;2022-12-07T03:19:44;3.20;99.90
22852;DHT22;11592;45.460;9.240;2022-12-07T03:22:13;3.20;99.90
22852;DHT22;11592;45.460;9.240;2022-12-07T03:24:48;3.10;99.90
22852;DHT22;11592;45.460;9.240;2022-12-07T03:27:25;3.10;99.90
22852;DHT22;11592;45.460;9.240;2022-12-07T03:30:18;3.10;99.90
22852;DHT22;11592;45.460;9.240;2022-12-07T03:35:28;3.10;99.90
22852;DHT22;11592;45.460;9.240;2022-12-07T03:38:05;3.10;99.90
22852;DHT22;11592;45.460;9.240;2022-12-07T03:40:47;3.10;99.90
22852;DHT22;11592;45.460;9.240;2022-12-07T03:43:17;3.10;99.90
22852;DHT22;11592;45.460;9.240;2022-12-07T03:56:49;3.10;99.90
22852;DHT22;11592;45.460;9.240;2022-12-07T03:59:17;3.10;99.90
22852;DHT22;11592;45.460;9.240;2022-12-07T04:01:47;3.10;99.90
22852;DHT22;11592;45.460;9.240;2022-12-07T04:04:17;3.00;99.90
22852;DHT22;11592;45.460;9.240;2022-12-07T04:06:44;3.00;99.90
22852;DHT22;11592;45.460;9.240;2022-12-07T04:09:11;3.00;99.90
22852;DHT22;11592;45.460;9.240;2022-12-07T04:11:38;3.00;99.90
22852;DHT22;11592;45.460;9.240;2022-12-07T04:14:05;3.00;99.90
22852;DHT22;11592;45.460;9.240;2022-12-07T04:16:49;3.00;99.90
22852;DHT22;11592;45.460;9.240;2022-12-07T04:19:17;3.00;99.90
22852;DHT22;11592;45.460;9.240;2022-12-07T04:21:45;3.00;99.90
22852;DHT22;11592;45.460;9.240;2022-12-07T04:24:13;3.10;99.90
22852;DHT22;11592;45.460;9.240;2022-12-07T04:26:41;3.10;99.90
22852;DHT22;11592;45.460;9.240;2022-12-07T04:29:08;3.10;99.90
22852;DHT22;11592;45.460;9.240;2022-12-07T04:31:36;3.10;99.90
22852;DHT22;11592;45.460;9.240;2022-12-07T04:34:04;3.20;99.90
22852;DHT22;11592;45.460;9.240;2022-12-07T04:36:31;3.30;99.90
22852;DHT22;11592;45.460;9.240;2022-12-07T04:38:59;3.20;99.90
22852;DHT22;11592;45.460;9.240;2022-12-07T04:41:26;3.20;99.90
22852;DHT22;11592;45.460;9.240;2022-12-07T04:43:58;3.10;99.90
22852;DHT22;11592;45.460;9.240;2022-12-07T04:46:26;3.10;99.90
22852;DHT22;11592;45.460;9.240;2022-12-07T04:48:54;3.10;99.90
22852;DHT22;11592;45.460;9.240;2022-12-07T04:51:23;2.90;99.90
22852;DHT22;11592;45.460;9.240;2022-12-07T04:53:50;2.90;99.90
22852;DHT22;11592;45.460;9.240;2022-12-07T04:56:18;2.80;99.90
22852;DHT22;11592;45.460;9.240;2022-12-07T04:58:46;2.70;99.90
22852;DHT22;11592;45.460;9.240;2022-12-07T05:01:15;2.60;99.90
22852;DHT22;11592;45.460;9.240;2022-12-07T05:03:42;2.60;99.90
22852;DHT22;11592;45.460;9.240;2022-12-07T05:06:10;2.60;99.90
22852;DHT22;11592;45.460;9.240;2022-12-07T05:08:39;2.50;99.90
22852;DHT22;11592;45.460;9.240;2022-12-07T05:11:07;2.40;99.90
22852;DHT22;11592;45.460;9.240;2022-12-07T05:13:35;2.40;99.90
22852;DHT22;11592;45.460;9.240;2022-12-07T05:16:02;2.40;99.90
22852;DHT22;11592;45.460;9.240;2022-12-07T05:18:29;2.30;99.90
22852;DHT22;11592;45.460;9.240;2022-12-07T05:20:56;2.30;99.90
22852;DHT22;11592;45.460;9.240;2022-12-07T05:23:23;2.30;99.90
22852;DHT22;11592;45.460;9.240;2022-12-07T05:25:50;2.30;99.90
22852;DHT22;11592;45.460;9.240;2022-12-07T05:28:16;2.20;99.90
22852;DHT22;11592;45.460;9.240;2022-12-07T05:30:43;2.20;99.90
22852;DHT22;11592;45.460;9.240;2022-12-07T05:33:10;2.20;99.90
22852;DHT22;11592;45.460;9.240;2022-12-07T05:35:37;2.20;99.90
22852;DHT22;11592;45.460;9.240;2022-12-07T05:38:04;2.20;99.90
22852;DHT22;11592;45.460;9.240;2022-12-07T05:40:31;2.20;99.90
22852;DHT22;11592;45.460;9.240;2022-12-07T05:42:58;2.10;99.90
22852;DHT22;11592;45.460;9.240;2022-12-07T05:45:30;2.00;99.90
22852;DHT22;11592;45.460;9.240;2022-12-07T05:47:57;2.00;99.90
22852;DHT22;11592;45.460;9.240;2022-12-07T05:50:24;1.90;99.90
22852;DHT22;11592;45.460;9.240;2022-12-07T05:52:51;1.90;99.90
22852;DHT22;11592;45.460;9.240;2022-12-07T05:55:18;1.80;99.90
22852;DHT22;11592;45.460;9.240;2022-12-07T05:57:45;1.80;99.90
22852;DHT22;11592;45.460;9.240;2022-12-07T06:00:32;1.70;99.90
22852;DHT22;11592;45.460;9.240;2022-12-07T06:02:59;1.80;99.90
22852;DHT22;11592;45.460;9.240;2022-12-07T06:05:26;1.80;99.90
22852;DHT22;11592;45.460;9.240;2022-12-07T06:07:53;1.80;99.90
22852;DHT22;11592;45.460;9.240;2022-12-07T06:10:19;1.70;99.90
22852;DHT22;11592;45.460;9.240;2022-12-07T06:12:46;1.60;99.90
22852;DHT22;11592;45.460;9.240;2022-12-07T06:15:13;1.70;99.90
22852;DHT22;11592;45.460;9.240;2022-12-07T06:17:40;1.70;99.90
22852;DHT22;11592;45.460;9.240;2022-12-07T06:20:07;1.70;99.90
22852;DHT22;11592;45.460;9.240;2022-12-07T06:22:35;1.70;99.90
22852;DHT22;11592;45.460;9.240;2022-12-07T06:25:01;1.60;99.90
22852;DHT22;11592;45.460;9.240;2022-12-07T06:27:34;1.50;99.90
22852;DHT22;11592;45.460;9.240;2022-12-07T06:30:03;1.50;99.90
22852;DHT22;11592;45.460;9.240;2022-12-07T06:32:33;1.50;99.90
22852;DHT22;11592;45.460;9.240;2022-12-07T06:35:00;1.40;99.90
22852;DHT22;11592;45.460;9.240;2022-12-07T06:37:27;1.30;99.90
22852;DHT22;11592;45.460;9.240;2022-12-07T06:39:54;1.30;99.90
22852;DHT22;11592;45.460;9.240;2022-12-07T06:42:21;1.20;99.90
22852;DHT22;11592;45.460;9.240;2022-12-07T06:44:48;1.10;99.90
22852;DHT22;11592;45.460;9.240;2022-12-07T06:47:14;1.20;99.90
22852;DHT22;11592;45.460;9.240;2022-12-07T06:50:01;1.30;99.90
22852;DHT22;11592;45.460;9.240;2022-12-07T06:52:29;1.30;99.90
22852;DHT22;11592;45.460;9.240;2022-12-07T06:54:56;1.30;99.90
22852;DHT22;11592;45.460;9.240;2022-12-07T06:57:23;1.20;99.90
22852;DHT22;11592;45.460;9.240;2022-12-07T06:59:50;1.10;99.90
22852;DHT22;11592;45.460;9.240;2022-12-07T07:02:17;1.00;99.90
22852;DHT22;11592;45.460;9.240;2022-12-07T07:04:44;1.10;99.90
22852;DHT22;11592;45.460;9.240;2022-12-07T07:07:11;1.10;99.90
22852;DHT22;11592;45.460;9.240;2022-12-07T07:09:38;1.10;99.90
22852;DHT22;11592;45.460;9.240;2022-12-07T07:12:04;1.10;99.90
22852;DHT22;11592;45.460;9.240;2022-12-07T07:14:31;1.20;99.90
22852;DHT22;11592;45.460;9.240;2022-12-07T07:16:59;1.10;99.90
22852;DHT22;11592;45.460;9.240;2022-12-07T07:19:26;1.20;99.90
22852;DHT22;11592;45.460;9.240;2022-12-07T07:21:53;1.10;99.90
22852;DHT22;11592;45.460;9.240;2022-12-07T07:24:19;1.20;99.90
22852;DHT22;11592;45.460;9.240;2022-12-07T07:26:46;1.30;99.90
22852;DHT22;11592;45.460;9.240;2022-12-07T07:29:13;1.40;99.90
22852;DHT22;11592;45.460;9.240;2022-12-07T07:31:40;1.50;99.90
22852;DHT22;11592;45.460;9.240;2022-12-07T07:34:07;1.60;99.90
22852;DHT22;11592;45.460;9.240;2022-12-07T07:36:34;1.60;99.90
22852;DHT22;11592;45.460;9.240;2022-12-07T07:39:00;1.60;99.90
22852;DHT22;11592;45.460;9.240;2022-12-07T07:41:27;1.50;99.90
22852;DHT22;11592;45.460;9.240;2022-12-07T07:43:54;1.50;99.90
22852;DHT22;11592;45.460;9.240;2022-12-07T07:46:21;1.30;99.90
22852;DHT22;11592;45.460;9.240;2022-12-07T07:48:48;1.20;99.90
22852;DHT22;11592;45.460;9.240;2022-12-07T07:51:15;1.20;99.90
22852;DHT22;11592;45.460;9.240;2022-12-07T07:53:42;1.40;99.90
22852;DHT22;11592;45.460;9.240;2022-12-07T07:56:08;1.40;99.90
22852;DHT22;11592;45.460;9.240;2022-12-07T07:58:35;1.40;99.90
22852;DHT22;11592;45.460;9.240;2022-12-07T08:01:06;1.30;99.90
22852;DHT22;11592;45.460;9.240;2022-12-07T08:03:33;1.30;99.90
22852;DHT22;11592;45.460;9.240;2022-12-07T08:06:02;1.30;99.90
22852;DHT22;11592;45.460;9.240;2022-12-07T08:08:29;1.30;99.90
22852;DHT22;11592;45.460;9.240;2022-12-07T08:10:56;1.30;99.90
22852;DHT22;11592;45.460;9.240;2022-12-07T08:13:23;1.30;99.90
22852;DHT22;11592;45.460;9.240;2022-12-07T08:15:56;1.40;99.90
22852;DHT22;11592;45.460;9.240;2022-12-07T08:18:23;1.30;99.90
22852;DHT22;11592;45.460;9.240;2022-12-07T08:20:50;1.40;99.90
22852;DHT22;11592;45.460;9.240;2022-12-07T08:23:17;1.40;99.90
22852;DHT22;11592;45.460;9.240;2022-12-07T08:25:44;1.50;99.90
22852;DHT22;11592;45.460;9.240;2022-12-07T08:28:11;1.70;99.90
22852;DHT22;11592;45.460;9.240;2022-12-07T08:30:37;1.70;99.90
22852;DHT22;11592;45.460;9.240;2022-12-07T08:33:04;1.80;99.90
22852;DHT22;11592;45.460;9.240;2022-12-07T08:35:33;1.90;99.90
22852;DHT22;11592;45.460;9.240;2022-12-07T08:38:00;2.00;99.90
22852;DHT22;11592;45.460;9.240;2022-12-07T08:40:29;2.30;99.90
22852;DHT22;11592;45.460;9.240;2022-12-07T08:42:56;2.50;99.90
22852;DHT22;11592;45.460;9.240;2022-12-07T08:45:23;2.60;99.90
22852;DHT22;11592;45.460;9.240;2022-12-07T08:48:02;2.70;99.90
22852;DHT22;11592;45.460;9.240;2022-12-07T08:50:31;2.80;99.90
22852;DHT22;11592;45.460;9.240;2022-12-07T08:53:00;2.80;99.90
22852;DHT22;11592;45.460;9.240;2022-12-07T08:55:28;2.80;99.90
22852;DHT22;11592;45.460;9.240;2022-12-07T08:57:58;2.60;99.90
22852;DHT22;11592;45.460;9.240;2022-12-07T09:00:25;2.50;99.90
22852;DHT22;11592;45.460;9.240;2022-12-07T09:02:53;2.50;99.90
22852;DHT22;11592;45.460;9.240;2022-12-07T09:05:21;2.50;99.90
22852;DHT22;11592;45.460;9.240;2022-12-07T09:07:51;2.40;99.90
22852;DHT22;11592;45.460;9.240;2022-12-07T09:10:20;2.50;99.90
22852;DHT22;11592;45.460;9.240;2022-12-07T09:12:48;2.50;99.90
22852;DHT22;11592;45.460;9.240;2022-12-07T09:15:14;2.60;99.90
22852;DHT22;11592;45.460;9.240;2022-12-07T09:17:41;2.70;99.90
22852;DHT22;11592;45.460;9.240;2022-12-07T09:20:08;3.00;99.90
22852;DHT22;11592;45.460;9.240;2022-12-07T09:22:35;3.00;99.90
22852;DHT22;11592;45.460;9.240;2022-12-07T09:25:03;2.90;99.90
22852;DHT22;11592;45.460;9.240;2022-12-07T09:27:30;2.90;99.90
22852;DHT22;11592;45.460;9.240;2022-12-07T09:29:57;3.10;99.90
22852;DHT22;11592;45.460;9.240;2022-12-07T09:32:24;3.00;99.90
22852;DHT22;11592;45.460;9.240;2022-12-07T09:34:51;3.30;99.90
22852;DHT22;11592;45.460;9.240;2022-12-07T09:37:18;3.20;99.90
22852;DHT22;11592;45.460;9.240;2022-12-07T09:39:45;3.40;99.90
22852;DHT22;11592;45.460;9.240;2022-12-07T09:44:55;3.40;99.90
22852;DHT22;11592;45.460;9.240;2022-12-07T09:47:22;3.40;99.90
22852;DHT22;11592;45.460;9.240;2022-12-07T09:49:49;3.60;99.90
22852;DHT22;11592;45.460;9.240;2022-12-07T09:52:21;3.60;99.90
22852;DHT22;11592;45.460;9.240;2022-12-07T09:54:51;3.60;99.90
22852;DHT22;11592;45.460;9.240;2022-12-07T09:57:25;3.60;99.90
22852;DHT22;11592;45.460;9.240;2022-12-07T09:59:58;3.60;99.90
22852;DHT22;11592;45.460;9.240;2022-12-07T10:02:38;3.60;99.90
22852;DHT22;11592;45.460;9.240;2022-12-07T10:05:07;3.60;99.90
22852;DHT22;11592;45.460;9.240;2022-12-07T10:07:34;3.50;99.90
22852;DHT22;11592;45.460;9.240;2022-12-07T10:10:03;3.40;99.90
22852;DHT22;11592;45.460;9.240;2022-12-07T10:12:55;3.50;99.90
22852;DHT22;11592;45.460;9.240;2022-12-07T10:15:22;3.40;99.90
22852;DHT22;11592;45.460;9.240;2022-12-07T10:17:51;3.50;99.90
22852;DHT22;11592;45.460;9.240;2022-12-07T10:20:26;3.50;99.90
22852;DHT22;11592;45.460;9.240;2022-12-07T10:23:00;3.60;99.90
22852;DHT22;11592;45.460;9.240;2022-12-07T10:25:30;3.60;99.90
22852;DHT22;11592;45.460;9.240;2022-12-07T10:28:12;3.70;99.90
22852;DHT22;11592;45.460;9.240;2022-12-07T10:30:48;4.10;99.90
22852;DHT22;11592;45.460;9.240;2022-12-07T10:33:48;4.10;99.90
22852;DHT22;11592;45.460;9.240;2022-12-07T10:38:51;4.20;99.90
22852;DHT22;11592;45.460;9.240;2022-12-07T10:41:18;4.50;99.90
22852;DHT22;11592;45.460;9.240;2022-12-07T10:43:48;4.50;99.90
22852;DHT22;11592;45.460;9.240;2022-12-07T10:52:38;4.50;99.90
22852;DHT22;11592;45.460;9.240;2022-12-07T10:57:56;4.70;99.90
22852;DHT22;11592;45.460;9.240;2022-12-07T11:00:37;4.90;99.90
22852;DHT22;11592;45.460;9.240;2022-12-07T11:09:23;4.90;99.90
22852;DHT22;11592;45.460;9.240;2022-12-07T11:12:35;4.90;99.90
22852;DHT22;11592;45.460;9.240;2022-12-07T11:26:26;4.70;99.90
22852;DHT22;11592;45.460;9.240;2022-12-07T11:37:01;6.50;99.90
22852;DHT22;11592;45.460;9.240;2022-12-07T11:39:37;9.10;99.90
22852;DHT22;11592;45.460;9.240;2022-12-07T11:42:22;12.50;99.90
22852;DHT22;11592;45.460;9.240;2022-12-07T11:45:00;13.30;99.90
22852;DHT22;11592;45.460;9.240;2022-12-07T11:47:47;14.20;99.90
22852;DHT22;11592;45.460;9.240;2022-12-07T11:53:32;12.40;99.90
22852;DHT22;11592;45.460;9.240;2022-12-07T11:56:06;11.30;99.90
22852;DHT22;11592;45.460;9.240;2022-12-07T12:03:46;9.80;99.90
22852;DHT22;11592;45.460;9.240;2022-12-07T12:06:20;9.30;99.90
22852;DHT22;11592;45.460;9.240;2022-12-07T12:25:05;8.30;99.90
22852;DHT22;11592;45.460;9.240;2022-12-07T12:27:37;9.60;99.90
22852;DHT22;11592;45.460;9.240;2022-12-07T12:30:07;9.90;99.90
22852;DHT22;11592;45.460;9.240;2022-12-07T12:32:50;9.70;99.90
22852;DHT22;11592;45.460;9.240;2022-12-07T12:37:47;9.20;99.90
22852;DHT22;11592;45.460;9.240;2022-12-07T12:42:48;10.50;99.90
22852;DHT22;11592;45.460;9.240;2022-12-07T12:45:28;12.40;99.90
22852;DHT22;11592;45.460;9.240;2022-12-07T12:48:03;13.20;99.90
22852;DHT22;11592;45.460;9.240;2022-12-07T12:50:37;13.70;99.90
22852;DHT22;11592;45.460;9.240;2022-12-07T12:53:22;14.20;99.90
22852;DHT22;11592;45.460;9.240;2022-12-07T13:00:49;13.40;99.90
22852;DHT22;11592;45.460;9.240;2022-12-07T13:03:34;14.10;99.90
22852;DHT22;11592;45.460;9.240;2022-12-07T13:08:52;15.60;99.90
22852;DHT22;11592;45.460;9.240;2022-12-07T13:13:52;15.10;99.90
22852;DHT22;11592;45.460;9.240;2022-12-07T13:18:48;16.00;99.90
22852;DHT22;11592;45.460;9.240;2022-12-07T13:31:54;14.40;99.90
22852;DHT22;11592;45.460;9.240;2022-12-07T13:34:34;14.70;99.90
22852;DHT22;11592;45.460;9.240;2022-12-07T13:37:15;14.80;99.90
22852;DHT22;11592;45.460;9.240;2022-12-07T13:39:51;14.40;99.90
22852;DHT22;11592;45.460;9.240;2022-12-07T13:42:34;14.90;99.90
22852;DHT22;11592;45.460;9.240;2022-12-07T13:45:24;15.40;99.90
22852;DHT22;11592;45.460;9.240;2022-12-07T13:48:28;15.20;99.90
22852;DHT22;11592;45.460;9.240;2022-12-07T13:50:58;15.30;99.90
22852;DHT22;11592;45.460;9.240;2022-12-07T13:53:25;15.00;99.90
22852;DHT22;11592;45.460;9.240;2022-12-07T13:55:58;14.40;99.90
22852;DHT22;11592;45.460;9.240;2022-12-07T13:58:29;13.80;99.90
22852;DHT22;11592;45.460;9.240;2022-12-07T14:00:57;12.50;99.90
22852;DHT22;11592;45.460;9.240;2022-12-07T14:03:35;10.50;99.90
22852;DHT22;11592;45.460;9.240;2022-12-07T14:08:43;8.30;99.90
22852;DHT22;11592;45.460;9.240;2022-12-07T14:11:18;7.80;99.90
22852;DHT22;11592;45.460;9.240;2022-12-07T14:14:00;7.70;99.90
22852;DHT22;11592;45.460;9.240;2022-12-07T14:16:32;7.50;99.90
22852;DHT22;11592;45.460;9.240;2022-12-07T14:19:03;7.40;99.90
22852;DHT22;11592;45.460;9.240;2022-12-07T14:21:32;7.30;99.90
22852;DHT22;11592;45.460;9.240;2022-12-07T14:24:19;7.20;99.90
22852;DHT22;11592;45.460;9.240;2022-12-07T14:26:50;7.20;99.90
22852;DHT22;11592;45.460;9.240;2022-12-07T14:31:55;7.00;99.90
22852;DHT22;11592;45.460;9.240;2022-12-07T14:34:23;6.90;99.90
22852;DHT22;11592;45.460;9.240;2022-12-07T14:36:50;6.90;99.90
22852;DHT22;11592;45.460;9.240;2022-12-07T14:39:17;6.80;99.90
22852;DHT22;11592;45.460;9.240;2022-12-07T14:41:44;6.80;99.90
22852;DHT22;11592;45.460;9.240;2022-12-07T14:44:20;6.70;99.90
22852;DHT22;11592;45.460;9.240;2022-12-07T14:46:52;6.70;99.90
22852;DHT22;11592;45.460;9.240;2022-12-07T14:49:40;6.70;99.90
22852;DHT22;11592;45.460;9.240;2022-12-07T14:52:19;6.70;99.90
22852;DHT22;11592;45.460;9.240;2022-12-07T14:55:24;6.70;99.90
22852;DHT22;11592;45.460;9.240;2022-12-07T14:57:52;6.70;99.90
22852;DHT22;11592;45.460;9.240;2022-12-07T15:00:21;6.70;99.90
22852;DHT22;11592;45.460;9.240;2022-12-07T15:02:49;6.60;99.90
22852;DHT22;11592;45.460;9.240;2022-12-07T15:05:16;6.50;99.90
22852;DHT22;11592;45.460;9.240;2022-12-07T15:07:45;6.50;99.90
22852;DHT22;11592;45.460;9.240;2022-12-07T15:10:26;6.60;99.90
22852;DHT22;11592;45.460;9.240;2022-12-07T15:13:02;6.40;99.90
22852;DHT22;11592;45.460;9.240;2022-12-07T15:15:50;6.40;99.90
22852;DHT22;11592;45.460;9.240;2022-12-07T15:18:17;6.30;99.90
22852;DHT22;11592;45.460;9.240;2022-12-07T15:20:45;6.30;99.90
22852;DHT22;11592;45.460;9.240;2022-12-07T15:23:12;6.30;99.90
22852;DHT22;11592;45.460;9.240;2022-12-07T15:25:44;6.30;99.90
22852;DHT22;11592;45.460;9.240;2022-12-07T15:28:11;6.30;99.90
22852;DHT22;11592;45.460;9.240;2022-12-07T15:30:40;6.30;99.90
22852;DHT22;11592;45.460;9.240;2022-12-07T15:33:07;6.40;99.90
22852;DHT22;11592;45.460;9.240;2022-12-07T15:35:41;6.30;99.90
22852;DHT22;11592;45.460;9.240;2022-12-07T15:38:08;6.30;99.90
22852;DHT22;11592;45.460;9.240;2022-12-07T15:40:36;6.30;99.90
22852;DHT22;11592;45.460;9.240;2022-12-07T15:43:03;6.10;99.90
22852;DHT22;11592;45.460;9.240;2022-12-07T15:45:30;5.90;99.90
22852;DHT22;11592;45.460;9.240;2022-12-07T15:47:57;5.90;99.90
22852;DHT22;11592;45.460;9.240;2022-12-07T15:50:44;6.10;99.90
22852;DHT22;11592;45.460;9.240;2022-12-07T15:53:11;6.20;99.90
22852;DHT22;11592;45.460;9.240;2022-12-07T15:55:41;6.10;99.90
22852;DHT22;11592;45.460;9.240;2022-12-07T15:58:07;6.10;99.90
22852;DHT22;11592;45.460;9.240;2022-12-07T16:00:34;6.20;99.90
22852;DHT22;11592;45.460;9.240;2022-12-07T16:03:01;6.30;99.90
22852;DHT22;11592;45.460;9.240;2022-12-07T16:05:28;6.30;99.90
22852;DHT22;11592;45.460;9.240;2022-12-07T16:07:55;6.30;99.90
22852;DHT22;11592;45.460;9.240;2022-12-07T16:10:21;6.10;99.90
22852;DHT22;11592;45.460;9.240;2022-12-07T16:12:48;6.00;99.90
22852;DHT22;11592;45.460;9.240;2022-12-07T16:15:15;5.80;99.90
22852;DHT22;11592;45.460;9.240;2022-12-07T16:17:50;5.80;99.90
22852;DHT22;11592;45.460;9.240;2022-12-07T16:20:17;5.80;99.90
22852;DHT22;11592;45.460;9.240;2022-12-07T16:22:43;5.80;99.90
22852;DHT22;11592;45.460;9.240;2022-12-07T16:25:10;5.70;99.90
22852;DHT22;11592;45.460;9.240;2022-12-07T16:27:37;5.60;99.90
22852;DHT22;11592;45.460;9.240;2022-12-07T16:30:04;5.80;99.90
22852;DHT22;11592;45.460;9.240;2022-12-07T16:32:31;5.90;99.90
22852;DHT22;11592;45.460;9.240;2022-12-07T16:34:58;5.80;99.90
22852;DHT22;11592;45.460;9.240;2022-12-07T16:37:25;5.60;99.90
22852;DHT22;11592;45.460;9.240;2022-12-07T16:39:52;5.40;99.90
22852;DHT22;11592;45.460;9.240;2022-12-07T16:42:18;5.40;99.90
22852;DHT22;11592;45.460;9.240;2022-12-07T16:44:45;5.30;99.90
22852;DHT22;11592;45.460;9.240;2022-12-07T16:47:12;5.20;99.90
22852;DHT22;11592;45.460;9.240;2022-12-07T16:49:39;5.20;99.90
22852;DHT22;11592;45.460;9.240;2022-12-07T16:52:05;5.10;99.90
22852;DHT22;11592;45.460;9.240;2022-12-07T16:54:47;5.10;99.90
22852;DHT22;11592;45.460;9.240;2022-12-07T16:57:15;5.10;99.90
22852;DHT22;11592;45.460;9.240;2022-12-07T16:59:48;5.10;99.90
22852;DHT22;11592;45.460;9.240;2022-12-07T17:02:15;5.10;99.90
22852;DHT22;11592;45.460;9.240;2022-12-07T17:04:42;5.10;99.90
22852;DHT22;11592;45.460;9.240;2022-12-07T17:07:09;5.10;99.90
22852;DHT22;11592;45.460;9.240;2022-12-07T17:09:36;5.20;99.90
22852;DHT22;11592;45.460;9.240;2022-12-07T17:12:03;5.30;99.90
22852;DHT22;11592;45.460;9.240;2022-12-07T17:14:31;5.50;99.90
22852;DHT22;11592;45.460;9.240;2022-12-07T17:17:17;5.60;99.90
22852;DHT22;11592;45.460;9.240;2022-12-07T17:19:43;5.40;99.90
22852;DHT22;11592;45.460;9.240;2022-12-07T17:22:10;5.20;99.90
22852;DHT22;11592;45.460;9.240;2022-12-07T17:24:39;5.20;99.90
22852;DHT22;11592;45.460;9.240;2022-12-07T17:27:06;5.20;99.90
22852;DHT22;11592;45.460;9.240;2022-12-07T17:29:33;5.10;99.90
22852;DHT22;11592;45.460;9.240;2022-12-07T17:31:59;5.00;99.90
22852;DHT22;11592;45.460;9.240;2022-12-07T17:34:26;4.90;99.90
22852;DHT22;11592;45.460;9.240;2022-12-07T17:36:53;4.80;99.90
22852;DHT22;11592;45.460;9.240;2022-12-07T17:39:21;4.70;99.90
22852;DHT22;11592;45.460;9.240;2022-12-07T17:41:48;4.80;99.90
22852;DHT22;11592;45.460;9.240;2022-12-07T17:44:33;4.70;99.90
22852;DHT22;11592;45.460;9.240;2022-12-07T17:47:00;4.60;99.90
22852;DHT22;11592;45.460;9.240;2022-12-07T17:49:29;4.80;99.90
22852;DHT22;11592;45.460;9.240;2022-12-07T17:51:56;4.80;99.90
22852;DHT22;11592;45.460;9.240;2022-12-07T17:54:42;4.60;99.90
22852;DHT22;11592;45.460;9.240;2022-12-07T17:57:09;4.60;99.90
22852;DHT22;11592;45.460;9.240;2022-12-07T17:59:35;4.50;99.90
22852;DHT22;11592;45.460;9.240;2022-12-07T18:02:02;4.40;99.90
22852;DHT22;11592;45.460;9.240;2022-12-07T18:04:29;4.30;99.90
22852;DHT22;11592;45.460;9.240;2022-12-07T18:06:56;4.20;99.90
22852;DHT22;11592;45.460;9.240;2022-12-07T18:09:24;4.30;99.90
22852;DHT22;11592;45.460;9.240;2022-12-07T18:11:51;4.30;99.90
22852;DHT22;11592;45.460;9.240;2022-12-07T18:14:17;4.30;99.90